Time;durP1;ratioP1;P1;durP2;ratioP2;P2;SDS_P1;SDS_P2;PMS_P1;PMS_P2;Temp;Humidity;BMP_temperature;BMP_pressure;BME280_temperature;BME280_humidity;BME280_pressure;Samples;Min_cycle;Max_cycle;Signal;HPM_P1;HPM_P2
2021/07/15 00:00:24;;;;;;;9.07;8.77;;;17.90;99.90;;;;;;4973293;28;20478;-69
2021/07/15 00:02:51;;;;;;;8.73;8.43;;;17.90;99.90;;;;;;4973223;28;20439;-70
2021/07/15 00:05:18;;;;;;;8.90;8.60;;;17.90;99.90;;;;;;4973014;28;20838;-69
2021/07/15 00:07:45;;;;;;;8.70;8.40;;;17.80;99.90;;;;;;4972967;28;20821;-70
2021/07/15 00:10:20;;;;;;;9.10;8.80;;;17.80;99.90;;;;;;4972865;28;20462;-70
2021/07/15 00:12:49;;;;;;;9.10;8.80;;;17.80;99.90;;;;;;4972620;28;20498;-70
2021/07/15 00:15:18;;;;;;;8.97;8.60;;;17.80;99.90;;;;;;4973238;28;20813;-70
2021/07/15 00:17:45;;;;;;;9.40;9.00;;;17.80;99.90;;;;;;4972745;28;20466;-71
2021/07/15 00:20:14;;;;;;;9.03;8.73;;;17.80;99.90;;;;;;4972832;28;20476;-71
2021/07/15 00:22:42;;;;;;;8.53;8.33;;;17.90;99.90;;;;;;4972037;28;20480;-71
2021/07/15 00:25:11;;;;;;;8.97;8.77;;;17.80;99.90;;;;;;4971575;28;21001;-70
2021/07/15 00:27:40;;;;;;;8.50;8.30;;;17.70;99.90;;;;;;4971774;28;20475;-70
2021/07/15 00:30:08;;;;;;;9.60;9.30;;;17.60;99.90;;;;;;4971719;28;20456;-70
2021/07/15 00:32:35;;;;;;;9.57;9.27;;;17.50;99.90;;;;;;4971714;28;20459;-70
2021/07/15 00:35:01;;;;;;;10.00;9.60;;;17.20;99.90;;;;;;4971995;28;20448;-70
2021/07/15 00:37:29;;;;;;;10.77;10.47;;;17.20;99.90;;;;;;4971604;28;20471;-71
2021/07/15 00:39:55;;;;;;;11.17;10.77;;;16.90;99.90;;;;;;4971641;28;20797;-70
2021/07/15 00:42:22;;;;;;;11.40;10.90;;;16.80;99.90;;;;;;4971615;28;20452;-70
2021/07/15 00:44:50;;;;;;;11.90;11.40;;;16.70;99.90;;;;;;4971558;28;20872;-71
2021/07/15 00:47:17;;;;;;;13.03;12.53;;;16.50;99.90;;;;;;4971733;28;20458;-71
2021/07/15 00:49:44;;;;;;;15.23;14.73;;;16.50;99.90;;;;;;4971293;28;20460;-70
2021/07/15 00:52:12;;;;;;;18.30;17.50;;;16.40;99.90;;;;;;4971029;28;20459;-70
2021/07/15 00:54:41;;;;;;;19.53;18.83;;;16.30;99.90;;;;;;4970883;28;20483;-71
2021/07/15 00:57:08;;;;;;;20.77;19.87;;;16.20;99.90;;;;;;4971091;28;20451;-70
2021/07/15 00:59:35;;;;;;;19.17;18.37;;;16.20;99.90;;;;;;4971273;28;20464;-70
2021/07/15 01:02:04;;;;;;;18.90;17.90;;;16.10;99.90;;;;;;4971099;28;20458;-71
2021/07/15 01:04:31;;;;;;;18.13;17.53;;;16.00;99.90;;;;;;4971127;28;20499;-71
2021/07/15 01:06:58;;;;;;;17.90;17.30;;;16.00;99.90;;;;;;4971103;28;20455;-71
2021/07/15 01:09:25;;;;;;;17.40;16.80;;;16.00;99.90;;;;;;4971075;28;20463;-72
2021/07/15 01:12:02;;;;;;;17.13;16.53;;;16.00;99.90;;;;;;4971005;28;20448;-72
2021/07/15 01:14:41;;;;;;;16.80;16.20;;;16.00;99.90;;;;;;4971097;28;20447;-71
2021/07/15 01:17:13;;;;;;;16.93;16.33;;;16.00;99.90;;;;;;4970842;28;20946;-72
2021/07/15 01:20:30;;;;;;;16.50;15.90;;;16.00;99.90;;;;;;4970750;28;20476;-72
2021/07/15 01:23:11;;;;;;;16.00;15.40;;;16.00;99.90;;;;;;4935706;28;1016984;-72
2021/07/15 01:26:02;;;;;;;16.63;16.03;;;16.00;99.90;;;;;;4971539;28;20513;-71
2021/07/15 01:28:52;;;;;;;15.57;15.07;;;16.00;99.90;;;;;;4971652;28;20460;-72
2021/07/15 01:31:20;;;;;;;16.10;15.50;;;16.00;99.90;;;;;;4971603;28;20459;-72
2021/07/15 01:33:50;;;;;;;16.20;15.60;;;16.00;99.90;;;;;;4971601;28;20459;-72
2021/07/15 01:36:22;;;;;;;15.33;14.83;;;15.90;99.90;;;;;;4971601;28;20479;-71
2021/07/15 01:38:53;;;;;;;15.70;15.20;;;15.90;99.90;;;;;;4971369;28;20455;-71
2021/07/15 01:41:22;;;;;;;14.10;13.60;;;15.90;99.90;;;;;;4971480;28;20452;-72
2021/07/15 01:43:54;;;;;;;13.87;13.47;;;15.90;99.90;;;;;;4971437;28;20480;-71
2021/07/15 01:46:23;;;;;;;13.67;13.27;;;15.90;99.90;;;;;;4971380;28;20821;-71
2021/07/15 01:48:50;;;;;;;13.60;13.20;;;15.90;99.90;;;;;;4971394;28;20691;-71
2021/07/15 01:51:18;;;;;;;13.40;13.00;;;15.90;99.90;;;;;;4971485;28;20878;-71
2021/07/15 01:53:45;;;;;;;11.83;11.43;;;16.00;99.90;;;;;;4971635;28;20482;-71
2021/07/15 01:56:13;;;;;;;11.30;11.00;;;16.00;99.90;;;;;;4971339;28;20562;-71
2021/07/15 01:58:41;;;;;;;10.83;10.53;;;16.00;99.90;;;;;;4971259;28;20460;-71
2021/07/15 02:01:10;;;;;;;11.47;11.07;;;16.00;99.90;;;;;;4971507;28;20463;-71
2021/07/15 02:03:42;;;;;;;11.53;11.13;;;16.10;99.90;;;;;;4971282;28;20459;-71
2021/07/15 02:06:10;;;;;;;11.13;10.83;;;16.10;99.90;;;;;;4972221;28;20448;-71
2021/07/15 02:08:37;;;;;;;11.20;10.90;;;16.20;99.90;;;;;;4972308;28;20460;-71
2021/07/15 02:11:06;;;;;;;11.20;10.90;;;16.20;99.90;;;;;;4972638;28;20462;-71
2021/07/15 02:13:34;;;;;;;11.47;11.07;;;16.20;99.90;;;;;;4971372;28;20490;-72
2021/07/15 02:16:01;;;;;;;12.13;11.73;;;16.20;99.90;;;;;;4971198;28;20452;-71
2021/07/15 02:18:28;;;;;;;12.57;12.17;;;16.20;99.90;;;;;;4970998;28;20455;-71
2021/07/15 02:20:58;;;;;;;11.10;10.70;;;16.20;99.90;;;;;;4970973;28;20683;-72
2021/07/15 02:23:26;;;;;;;11.43;10.93;;;16.20;99.90;;;;;;4970852;28;20828;-71
2021/07/15 02:25:54;;;;;;;10.93;10.63;;;16.20;99.90;;;;;;4971067;28;20487;-71
2021/07/15 02:28:22;;;;;;;11.37;11.07;;;16.20;99.90;;;;;;4970784;28;20961;-71
2021/07/15 02:30:52;;;;;;;12.03;11.43;;;16.10;99.90;;;;;;4971016;28;20933;-71
2021/07/15 02:33:23;;;;;;;11.60;11.30;;;16.10;99.90;;;;;;4970860;28;20965;-72
2021/07/15 02:35:52;;;;;;;11.80;11.40;;;16.20;99.90;;;;;;4973780;28;20456;-71
2021/07/15 02:38:24;;;;;;;10.93;10.63;;;16.20;99.90;;;;;;4974512;28;20455;-72
2021/07/15 02:40:52;;;;;;;11.73;11.33;;;16.20;99.90;;;;;;4974461;28;20451;-72
2021/07/15 02:43:18;;;;;;;11.70;11.40;;;16.30;99.90;;;;;;4974603;28;20467;-71
2021/07/15 02:45:45;;;;;;;11.90;11.40;;;16.20;99.90;;;;;;4974461;28;20491;-72
2021/07/15 02:48:13;;;;;;;11.73;11.33;;;16.20;99.90;;;;;;4974283;28;20489;-71
2021/07/15 02:50:39;;;;;;;11.70;11.30;;;16.30;99.90;;;;;;4974365;28;20455;-72
2021/07/15 02:53:06;;;;;;;12.70;12.30;;;16.30;99.90;;;;;;4974069;28;20455;-71
2021/07/15 02:55:35;;;;;;;12.10;11.70;;;16.30;99.90;;;;;;4974496;28;20459;-71
2021/07/15 02:58:08;;;;;;;12.80;11.87;;;16.30;99.90;;;;;;4974348;28;20478;-71
2021/07/15 03:00:38;;;;;;;11.40;11.10;;;16.30;99.90;;;;;;4974222;28;20459;-71
2021/07/15 03:03:15;;;;;;;11.73;11.43;;;16.40;99.90;;;;;;4974077;28;20459;-71
2021/07/15 03:05:49;;;;;;;11.50;11.10;;;16.40;99.90;;;;;;4974021;28;20526;-71
2021/07/15 03:08:24;;;;;;;12.40;12.00;;;16.40;99.90;;;;;;4974250;28;20459;-71
2021/07/15 03:10:54;;;;;;;12.10;11.80;;;16.40;99.90;;;;;;4974030;28;20981;-70
2021/07/15 03:13:24;;;;;;;11.90;11.50;;;16.50;99.90;;;;;;4974063;28;20475;-70
2021/07/15 03:15:51;;;;;;;13.00;12.33;;;16.50;99.90;;;;;;4973877;28;20447;-71
2021/07/15 03:18:19;;;;;;;12.50;12.10;;;16.40;99.90;;;;;;4973944;28;20462;-71
2021/07/15 03:20:46;;;;;;;12.40;12.00;;;16.40;99.90;;;;;;4973973;28;20819;-70
2021/07/15 03:23:16;;;;;;;12.30;11.90;;;16.40;99.90;;;;;;4973514;28;20487;-70
2021/07/15 03:25:48;;;;;;;12.70;12.20;;;16.40;99.90;;;;;;4973545;28;20492;-70
2021/07/15 03:28:18;;;;;;;11.27;10.97;;;16.50;99.90;;;;;;4973939;28;20471;-71
2021/07/15 03:30:45;;;;;;;11.60;11.30;;;16.50;99.90;;;;;;4973909;28;20444;-71
2021/07/15 03:33:13;;;;;;;11.70;11.40;;;16.60;99.90;;;;;;4973633;28;20459;-71
2021/07/15 03:35:41;;;;;;;12.70;12.30;;;16.50;99.90;;;;;;4973498;28;20821;-71
2021/07/15 03:38:09;;;;;;;11.83;11.53;;;16.40;99.90;;;;;;4973418;28;20451;-71
2021/07/15 03:40:37;;;;;;;11.60;11.23;;;16.50;99.90;;;;;;4973551;28;20460;-71
2021/07/15 03:43:04;;;;;;;12.70;12.30;;;16.50;99.90;;;;;;4973491;28;20467;-71
2021/07/15 03:45:32;;;;;;;11.93;11.57;;;16.50;99.90;;;;;;4973418;28;20494;-71
2021/07/15 03:48:00;;;;;;;11.20;10.80;;;16.50;99.90;;;;;;4973124;28;20463;-71
2021/07/15 03:50:30;;;;;;;12.10;11.60;;;16.50;99.90;;;;;;4973229;28;20825;-71
2021/07/15 03:52:59;;;;;;;10.57;9.77;;;16.50;99.90;;;;;;4973175;28;20459;-71
2021/07/15 03:55:28;;;;;;;11.20;10.90;;;16.50;99.90;;;;;;4973159;28;20455;-71
2021/07/15 03:57:56;;;;;;;11.90;11.50;;;16.60;99.90;;;;;;4972939;28;20467;-71
2021/07/15 04:00:24;;;;;;;11.20;10.90;;;16.60;99.90;;;;;;4972708;28;20467;-71
2021/07/15 04:02:59;;;;;;;11.23;10.70;;;16.60;99.90;;;;;;4972817;28;21190;-71
2021/07/15 04:05:28;;;;;;;11.40;11.00;;;16.70;99.90;;;;;;4972808;28;20528;-72
2021/07/15 04:07:56;;;;;;;10.97;10.67;;;16.60;99.90;;;;;;4972652;28;20490;-71
2021/07/15 04:10:24;;;;;;;10.90;10.60;;;16.80;99.90;;;;;;4972805;28;20922;-72
2021/07/15 04:12:52;;;;;;;11.17;10.77;;;16.80;99.90;;;;;;4972999;28;20815;-71
2021/07/15 04:15:21;;;;;;;11.20;10.90;;;16.80;99.90;;;;;;4972914;28;20475;-71
2021/07/15 04:17:50;;;;;;;11.10;10.70;;;16.90;99.90;;;;;;4972992;28;20456;-72
2021/07/15 04:20:22;;;;;;;11.00;10.70;;;16.80;99.90;;;;;;4972985;28;20481;-71
2021/07/15 04:22:51;;;;;;;11.20;10.70;;;16.90;99.90;;;;;;4972476;28;20508;-71
2021/07/15 04:25:21;;;;;;;11.00;10.60;;;16.90;99.90;;;;;;4972713;28;20491;-71
2021/07/15 04:27:50;;;;;;;10.33;10.03;;;16.90;99.90;;;;;;4972748;28;20456;-71
2021/07/15 04:30:18;;;;;;;9.67;9.37;;;16.90;99.90;;;;;;4972589;28;20491;-71
2021/07/15 04:32:49;;;;;;;10.17;9.77;;;16.90;99.90;;;;;;4972460;28;20448;-71
2021/07/15 04:35:17;;;;;;;11.17;10.60;;;17.00;99.90;;;;;;4972600;28;20458;-71
2021/07/15 04:37:46;;;;;;;10.00;9.57;;;17.00;99.90;;;;;;4972327;28;20494;-72
2021/07/15 04:40:16;;;;;;;10.40;9.90;;;17.10;99.90;;;;;;4972036;28;20455;-72
2021/07/15 04:42:44;;;;;;;11.20;10.80;;;17.10;99.90;;;;;;4972239;28;20514;-72
2021/07/15 04:45:12;;;;;;;10.30;9.90;;;17.10;99.90;;;;;;4972168;28;20491;-71
2021/07/15 04:47:41;;;;;;;9.90;9.50;;;17.10;99.90;;;;;;4972035;28;20452;-71
2021/07/15 04:50:13;;;;;;;10.00;9.60;;;17.20;99.90;;;;;;4971998;28;20451;-71
2021/07/15 04:52:41;;;;;;;9.90;9.60;;;17.10;99.90;;;;;;4972070;28;20462;-71
2021/07/15 04:55:10;;;;;;;10.50;10.00;;;17.00;99.90;;;;;;4971881;28;20703;-69
2021/07/15 04:57:37;;;;;;;11.10;10.07;;;17.00;99.90;;;;;;4965850;28;21042;-70
2021/07/15 05:00:07;;;;;;;10.00;9.70;;;17.10;99.90;;;;;;4972491;28;20456;-73
2021/07/15 05:02:34;;;;;;;10.20;9.80;;;17.00;99.90;;;;;;4970802;28;20452;-71
2021/07/15 05:05:09;;;;;;;10.80;10.10;;;17.00;99.90;;;;;;4969694;28;20487;-71
2021/07/15 05:07:37;;;;;;;9.70;9.40;;;17.00;99.90;;;;;;4972058;28;20454;-71
2021/07/15 05:10:05;;;;;;;10.07;9.67;;;17.10;99.90;;;;;;4970970;28;20518;-72
2021/07/15 05:12:33;;;;;;;10.30;10.00;;;17.00;99.90;;;;;;4972270;28;20452;-71
2021/07/15 05:15:01;;;;;;;11.30;10.80;;;17.00;99.90;;;;;;4972246;28;20942;-72
2021/07/15 05:17:30;;;;;;;11.50;10.90;;;17.10;99.90;;;;;;4971775;28;20469;-72
2021/07/15 05:19:57;;;;;;;10.57;10.23;;;17.20;99.90;;;;;;4972052;28;20534;-72
2021/07/15 05:22:24;;;;;;;11.50;11.10;;;17.20;99.90;;;;;;4971508;28;20492;-72
2021/07/15 05:24:51;;;;;;;10.00;9.60;;;17.30;99.90;;;;;;4971680;28;20452;-71
2021/07/15 05:27:18;;;;;;;10.10;9.23;;;17.30;99.90;;;;;;4971915;28;20638;-72
2021/07/15 05:29:46;;;;;;;9.90;9.50;;;17.30;99.90;;;;;;4971982;28;20463;-71
2021/07/15 05:32:13;;;;;;;10.20;9.80;;;17.30;99.90;;;;;;4971604;28;20459;-71
2021/07/15 05:34:39;;;;;;;10.87;10.27;;;17.30;99.90;;;;;;4971658;28;20639;-71
2021/07/15 05:37:07;;;;;;;10.40;10.00;;;17.30;99.90;;;;;;4971427;28;20451;-71
2021/07/15 05:39:35;;;;;;;10.37;9.97;;;17.40;99.90;;;;;;4971761;28;20478;-71
2021/07/15 05:42:01;;;;;;;10.53;9.93;;;17.30;99.90;;;;;;4971829;28;20817;-72
2021/07/15 05:44:28;;;;;;;10.97;10.67;;;17.40;99.90;;;;;;4971566;28;20456;-72
2021/07/15 05:46:56;;;;;;;12.43;11.47;;;17.60;99.90;;;;;;4970956;28;20491;-72
2021/07/15 05:49:23;;;;;;;11.70;11.10;;;17.80;99.90;;;;;;4960420;28;20455;-72
2021/07/15 05:51:50;;;;;;;10.43;9.83;;;17.80;99.90;;;;;;4961092;28;20926;-72
2021/07/15 05:54:17;;;;;;;9.87;9.47;;;17.80;99.90;;;;;;4959657;28;20457;-72
2021/07/15 05:56:44;;;;;;;11.40;10.97;;;17.80;99.90;;;;;;4960770;28;20463;-72
2021/07/15 05:59:10;;;;;;;10.90;10.40;;;18.10;99.90;;;;;;4960852;28;20923;-72
2021/07/15 06:01:37;;;;;;;10.67;10.27;;;18.10;99.90;;;;;;4959448;28;20448;-72
2021/07/15 06:04:05;;;;;;;9.97;9.57;;;18.10;99.90;;;;;;4960859;28;20965;-72
2021/07/15 06:06:32;;;;;;;11.53;10.80;;;18.20;99.90;;;;;;4961434;28;20491;-72
2021/07/15 06:08:59;;;;;;;10.70;9.90;;;18.20;99.90;;;;;;4962264;28;20444;-72
2021/07/15 06:11:25;;;;;;;11.47;11.00;;;18.40;99.90;;;;;;4964362;28;20444;-72
2021/07/15 06:13:52;;;;;;;11.23;10.37;;;18.50;99.90;;;;;;4965050;28;20452;-72
2021/07/15 06:16:19;;;;;;;10.77;10.23;;;18.50;99.90;;;;;;4963075;28;20445;-72
2021/07/15 06:18:46;;;;;;;13.17;10.97;;;18.80;99.90;;;;;;4964049;28;20455;-72
2021/07/15 06:21:14;;;;;;;14.67;10.70;;;19.00;99.90;;;;;;4964992;28;20440;-72
2021/07/15 06:23:41;;;;;;;10.67;10.17;;;19.00;99.90;;;;;;4962285;28;20502;-72
2021/07/15 06:26:09;;;;;;;10.43;10.00;;;19.10;99.90;;;;;;4964169;28;20480;-72
2021/07/15 06:28:36;;;;;;;10.43;10.03;;;19.20;99.90;;;;;;4963043;28;20447;-72
2021/07/15 06:31:03;;;;;;;10.77;10.17;;;19.30;99.90;;;;;;4964223;28;20447;-72
2021/07/15 06:33:30;;;;;;;12.00;10.70;;;19.30;99.90;;;;;;4963717;28;20821;-72
2021/07/15 06:35:56;;;;;;;10.97;10.57;;;19.30;99.90;;;;;;4962169;28;20569;-71
2021/07/15 06:38:34;;;;;;;10.90;10.40;;;19.00;99.90;;;;;;4963798;28;20455;-72
2021/07/15 06:41:04;;;;;;;9.97;9.50;;;19.20;99.90;;;;;;4965463;28;20930;-71
2021/07/15 06:43:31;;;;;;;10.60;10.30;;;19.30;99.90;;;;;;4974775;28;20455;-71
2021/07/15 06:45:58;;;;;;;11.43;10.70;;;19.60;99.90;;;;;;4974906;28;20487;-72
2021/07/15 06:48:25;;;;;;;11.40;10.63;;;20.10;99.90;;;;;;4975282;28;20488;-71
2021/07/15 06:50:52;;;;;;;10.33;9.90;;;20.30;99.90;;;;;;4975478;28;20451;-72
2021/07/15 06:53:19;;;;;;;10.50;10.10;;;20.60;99.90;;;;;;4974841;28;20451;-72
2021/07/15 06:55:47;;;;;;;10.10;9.70;;;20.50;99.90;;;;;;4974591;28;20447;-72
2021/07/15 06:58:14;;;;;;;10.03;9.63;;;20.40;99.90;;;;;;4974506;28;20455;-72
2021/07/15 07:00:41;;;;;;;10.70;10.10;;;20.50;99.90;;;;;;4974501;28;20463;-72
2021/07/15 07:03:07;;;;;;;9.90;9.60;;;20.70;99.90;;;;;;4974252;28;20459;-72
2021/07/15 07:05:34;;;;;;;11.80;11.00;;;21.00;99.90;;;;;;4974311;28;20478;-72
2021/07/15 07:08:01;;;;;;;10.30;9.90;;;20.50;99.90;;;;;;4974247;28;20942;-72
2021/07/15 07:10:28;;;;;;;10.20;9.90;;;20.40;99.90;;;;;;4974307;28;21026;-72
2021/07/15 07:12:56;;;;;;;10.93;10.33;;;20.40;99.90;;;;;;4974230;28;20467;-72
2021/07/15 07:15:23;;;;;;;10.40;10.10;;;20.50;99.90;;;;;;4974099;28;20462;-72
2021/07/15 07:17:51;;;;;;;11.10;10.60;;;20.50;99.90;;;;;;4974323;28;20791;-72
2021/07/15 07:20:18;;;;;;;9.73;9.33;;;20.50;99.90;;;;;;4973717;28;20498;-72
2021/07/15 07:22:46;;;;;;;9.57;9.03;;;20.20;99.90;;;;;;4973984;28;20483;-72
2021/07/15 07:25:14;;;;;;;10.50;9.80;;;19.90;99.90;;;;;;4973978;28;20452;-72
2021/07/15 07:27:41;;;;;;;10.60;10.10;;;19.90;99.90;;;;;;4973729;28;20487;-72
2021/07/15 07:30:12;;;;;;;10.60;10.20;;;20.10;99.90;;;;;;4973904;28;20451;-72
2021/07/15 07:32:39;;;;;;;9.80;9.50;;;20.20;99.90;;;;;;4973826;28;20452;-73
2021/07/15 07:35:06;;;;;;;10.03;9.30;;;20.40;99.90;;;;;;4973925;28;20783;-72
2021/07/15 07:37:33;;;;;;;9.83;9.53;;;20.70;99.90;;;;;;4974061;28;20459;-72
2021/07/15 07:40:01;;;;;;;9.87;9.47;;;21.20;99.90;;;;;;4973742;28;20459;-72
2021/07/15 07:42:28;;;;;;;10.10;9.70;;;21.60;99.90;;;;;;4973723;28;20455;-72
2021/07/15 07:44:55;;;;;;;9.87;9.47;;;22.00;99.90;;;;;;4973529;28;21001;-72
2021/07/15 07:47:23;;;;;;;10.00;9.70;;;22.10;99.90;;;;;;4973693;28;20495;-72
2021/07/15 07:49:49;;;;;;;9.80;9.30;;;22.20;99.90;;;;;;4973610;28;20467;-72
2021/07/15 07:52:16;;;;;;;10.77;10.23;;;22.30;99.90;;;;;;4973856;28;20938;-72
2021/07/15 07:54:43;;;;;;;10.83;10.53;;;22.40;99.90;;;;;;4973463;28;20462;-72
2021/07/15 07:57:10;;;;;;;10.63;10.27;;;22.30;99.90;;;;;;4973510;28;20644;-72
2021/07/15 07:59:37;;;;;;;10.30;10.00;;;22.20;99.90;;;;;;4973687;28;20456;-74
2021/07/15 08:02:04;;;;;;;11.33;10.87;;;22.20;99.90;;;;;;4973777;28;20461;-72
2021/07/15 08:04:32;;;;;;;10.67;10.27;;;22.20;99.90;;;;;;4973674;28;20463;-73
2021/07/15 08:06:59;;;;;;;10.40;10.10;;;22.20;99.90;;;;;;4971701;28;21001;-72
2021/07/15 08:09:27;;;;;;;9.70;9.40;;;22.00;99.90;;;;;;4973259;28;20452;-72
2021/07/15 08:11:55;;;;;;;10.00;9.70;;;22.00;99.90;;;;;;4973107;28;20455;-72
2021/07/15 08:14:22;;;;;;;10.33;9.93;;;22.10;99.90;;;;;;4972951;28;20456;-72
2021/07/15 08:16:50;;;;;;;10.20;9.90;;;22.30;99.90;;;;;;4972943;28;20455;-72
2021/07/15 08:19:17;;;;;;;10.60;10.20;;;22.30;99.90;;;;;;4973008;28;20503;-73
2021/07/15 08:21:45;;;;;;;10.73;10.27;;;22.70;99.90;;;;;;4972917;28;20455;-72
2021/07/15 08:24:12;;;;;;;10.73;10.33;;;22.90;99.90;;;;;;4972953;28;20460;-72
2021/07/15 08:26:39;;;;;;;11.10;10.60;;;22.90;99.90;;;;;;4972573;28;20491;-72
2021/07/15 08:29:06;;;;;;;11.00;10.60;;;22.70;99.90;;;;;;4972800;28;20448;-72
2021/07/15 08:31:32;;;;;;;9.97;9.67;;;22.50;99.90;;;;;;4972298;28;20950;-73
2021/07/15 08:33:59;;;;;;;10.90;10.40;;;22.60;99.90;;;;;;4972282;28;20451;-72
2021/07/15 08:36:28;;;;;;;11.00;10.60;;;22.40;99.90;;;;;;4972596;28;20443;-72
2021/07/15 08:38:56;;;;;;;10.77;10.30;;;22.30;99.90;;;;;;4972450;28;20462;-72
2021/07/15 08:41:23;;;;;;;10.40;10.00;;;22.40;99.90;;;;;;4972380;28;20448;-72
2021/07/15 08:43:50;;;;;;;10.17;9.87;;;22.30;99.90;;;;;;4972525;28;20455;-72
2021/07/15 08:46:20;;;;;;;10.77;10.37;;;22.10;99.90;;;;;;4972457;28;20491;-72
2021/07/15 08:48:47;;;;;;;10.47;10.07;;;22.00;99.90;;;;;;4972814;28;20479;-72
2021/07/15 08:51:14;;;;;;;11.60;11.10;;;22.10;99.90;;;;;;4970793;28;20476;-72
2021/07/15 08:53:43;;;;;;;11.00;10.30;;;22.00;99.90;;;;;;4972236;28;20970;-72
2021/07/15 08:58:57;;;;;;;10.67;10.27;;;22.30;99.90;;;;;;4971974;28;20523;-72
2021/07/15 09:01:24;;;;;;;11.33;10.93;;;22.30;99.90;;;;;;4971884;28;20460;-71
2021/07/15 09:03:52;;;;;;;11.27;10.37;;;22.50;99.90;;;;;;4972093;28;20513;-72
2021/07/15 09:06:18;;;;;;;10.93;10.53;;;22.30;99.90;;;;;;4972192;28;20491;-70
2021/07/15 09:08:45;;;;;;;10.40;9.80;;;22.00;99.90;;;;;;4972260;28;20443;-71
2021/07/15 09:11:13;;;;;;;10.40;10.10;;;21.80;99.90;;;;;;4972058;28;20459;-71
2021/07/15 09:13:41;;;;;;;10.60;10.20;;;22.10;99.90;;;;;;4972037;28;20448;-71
2021/07/15 09:16:12;;;;;;;10.63;10.33;;;22.50;99.90;;;;;;4971635;28;20456;-71
2021/07/15 09:18:54;;;;;;;9.87;9.57;;;22.70;99.90;;;;;;4971503;28;20448;-71
2021/07/15 09:21:25;;;;;;;11.47;10.87;;;23.00;99.90;;;;;;4971907;28;20960;-72
2021/07/15 09:23:51;;;;;;;10.17;9.77;;;23.30;99.90;;;;;;4971591;28;20491;-71
2021/07/15 09:26:20;;;;;;;10.33;9.93;;;23.40;99.90;;;;;;4971888;28;20473;-71
2021/07/15 09:28:47;;;;;;;9.70;9.20;;;23.70;99.90;;;;;;4971971;28;20950;-72
2021/07/15 09:31:19;;;;;;;9.80;9.50;;;23.80;99.90;;;;;;4971967;28;20966;-71
2021/07/15 09:33:47;;;;;;;10.20;9.80;;;24.20;99.90;;;;;;4972219;28;20456;-71
2021/07/15 09:36:17;;;;;;;9.83;9.43;;;24.40;99.90;;;;;;4970767;28;20451;-72
2021/07/15 09:38:46;;;;;;;10.23;9.90;;;24.20;99.90;;;;;;4971815;28;20452;-72
2021/07/15 09:41:16;;;;;;;11.10;10.70;;;23.50;99.90;;;;;;4970284;28;20547;-72
2021/07/15 09:43:45;;;;;;;9.80;9.30;;;23.60;99.90;;;;;;4971092;28;20463;-72
2021/07/15 09:46:20;;;;;;;9.90;9.50;;;23.80;99.90;;;;;;4970817;28;20817;-72
2021/07/15 09:48:49;;;;;;;9.73;9.33;;;23.90;99.90;;;;;;4971752;28;20482;-72
2021/07/15 09:51:17;;;;;;;9.80;9.50;;;24.60;99.90;;;;;;4970015;28;20817;-72
2021/07/15 09:53:45;;;;;;;10.43;10.07;;;24.50;99.90;;;;;;4966455;28;21684;-72
2021/07/15 09:56:13;;;;;;;9.90;9.60;;;24.50;99.90;;;;;;4970642;28;20450;-72
2021/07/15 09:58:42;;;;;;;9.67;9.27;;;24.50;99.90;;;;;;4971609;28;20456;-71
2021/07/15 10:01:12;;;;;;;9.90;9.60;;;25.00;99.90;;;;;;4971679;28;20869;-72
2021/07/15 10:03:42;;;;;;;11.67;10.93;;;25.20;99.90;;;;;;4971881;28;20467;-72
2021/07/15 10:06:10;;;;;;;10.27;9.87;;;25.10;99.90;;;;;;4971505;28;20498;-72
2021/07/15 10:08:38;;;;;;;9.73;9.43;;;24.70;99.90;;;;;;4971393;28;20852;-71
2021/07/15 10:11:20;;;;;;;10.73;10.37;;;24.60;99.90;;;;;;4971653;28;20456;-72
2021/07/15 10:13:48;;;;;;;9.77;9.47;;;25.10;99.90;;;;;;4971675;28;20474;-72
2021/07/15 10:16:16;;;;;;;12.57;12.07;;;25.10;99.90;;;;;;4971288;28;20462;-72
2021/07/15 10:18:46;;;;;;;10.50;10.20;;;24.80;99.90;;;;;;4971335;28;20448;-71
2021/07/15 10:21:14;;;;;;;10.40;10.10;;;24.40;99.90;;;;;;4971484;28;20464;-71
2021/07/15 10:23:43;;;;;;;10.53;10.23;;;24.30;99.90;;;;;;4970832;28;20491;-72
2021/07/15 10:26:11;;;;;;;11.00;10.60;;;24.20;99.90;;;;;;4969047;28;20991;-72
2021/07/15 10:28:39;;;;;;;10.30;9.50;;;24.10;99.90;;;;;;4952156;28;20873;-71
2021/07/15 10:31:10;;;;;;;10.00;9.60;;;24.80;99.90;;;;;;4951970;28;20464;-72
2021/07/15 10:33:39;;;;;;;10.57;10.07;;;25.60;99.80;;;;;;4951904;28;20453;-71
2021/07/15 10:36:06;;;;;;;9.80;9.40;;;26.50;98.40;;;;;;4964136;28;20451;-72
2021/07/15 10:38:37;;;;;;;10.40;10.10;;;27.30;96.50;;;;;;4971421;28;20467;-71
2021/07/15 10:41:05;;;;;;;11.00;10.63;;;28.50;94.40;;;;;;4971645;28;20455;-72
2021/07/15 10:43:32;;;;;;;10.10;9.80;;;28.70;94.10;;;;;;4971512;28;20463;-71
2021/07/15 10:46:01;;;;;;;10.57;10.27;;;28.50;93.40;;;;;;4971222;28;20838;-71
2021/07/15 10:48:29;;;;;;;10.47;10.07;;;28.40;93.50;;;;;;4970911;28;20494;-71
2021/07/15 10:51:00;;;;;;;10.63;10.13;;;27.90;94.20;;;;;;4971222;28;20460;-72
2021/07/15 10:53:28;;;;;;;9.47;9.17;;;27.50;94.50;;;;;;4971150;28;20456;-72
2021/07/15 10:55:55;;;;;;;10.00;9.70;;;27.00;95.50;;;;;;4972600;28;20455;-72
2021/07/15 10:58:42;;;;;;;10.63;10.00;;;26.40;96.70;;;;;;4974561;28;20459;-72
2021/07/15 11:01:09;;;;;;;10.70;10.30;;;25.80;98.20;;;;;;4974530;28;20459;-72
2021/07/15 11:03:36;;;;;;;11.80;11.30;;;25.70;98.50;;;;;;4974647;28;20459;-71
2021/07/15 11:06:04;;;;;;;10.53;10.13;;;25.50;98.70;;;;;;4974743;28;20506;-72
2021/07/15 11:08:59;;;;;;;10.10;9.80;;;25.60;99.00;;;;;;4974642;28;21015;-72
2021/07/15 11:11:33;;;;;;;10.97;10.50;;;25.40;99.00;;;;;;4974569;28;20546;-71
2021/07/15 11:14:00;;;;;;;11.63;11.03;;;25.70;99.70;;;;;;4974615;28;20451;-74
2021/07/15 11:16:51;;;;;;;11.27;10.63;;;26.40;98.10;;;;;;4974445;28;20470;-71
2021/07/15 11:19:53;;;;;;;10.60;10.20;;;26.70;97.10;;;;;;4974418;28;20471;-71
2021/07/15 11:22:45;;;;;;;11.83;11.20;;;26.90;97.00;;;;;;4974205;28;20479;-71
2021/07/15 11:25:14;;;;;;;10.87;10.47;;;27.30;96.60;;;;;;4974073;28;20804;-71
2021/07/15 11:27:47;;;;;;;11.93;11.43;;;27.90;95.40;;;;;;4973950;28;20479;-71
2021/07/15 11:30:25;;;;;;;12.07;11.57;;;28.00;95.40;;;;;;4974717;28;20454;-71
2021/07/15 11:32:51;;;;;;;11.03;10.63;;;28.30;94.70;;;;;;4975168;28;20459;-70
2021/07/15 11:35:23;;;;;;;12.47;12.07;;;28.40;94.20;;;;;;4974556;28;20474;-70
2021/07/15 11:38:12;;;;;;;10.40;10.07;;;28.50;93.90;;;;;;4974055;28;20466;-70
2021/07/15 11:40:51;;;;;;;11.37;10.97;;;27.90;93.70;;;;;;4974015;28;20716;-70
2021/07/15 11:43:29;;;;;;;12.90;12.00;;;27.20;94.90;;;;;;4974024;28;20455;-70
2021/07/15 11:46:16;;;;;;;11.40;11.00;;;26.30;96.50;;;;;;4973619;28;20448;-70
2021/07/15 11:48:45;;;;;;;11.20;10.80;;;26.30;96.90;;;;;;4973649;28;20490;-70
2021/07/15 11:51:28;;;;;;;10.10;9.77;;;26.50;97.30;;;;;;4973567;28;20451;-70
2021/07/15 11:54:22;;;;;;;10.40;10.10;;;26.50;96.70;;;;;;4973415;28;20462;-70
2021/07/15 11:56:51;;;;;;;10.63;10.33;;;26.40;97.10;;;;;;4973836;28;20455;-70
2021/07/15 11:59:38;;;;;;;10.87;10.47;;;26.20;97.50;;;;;;4973783;28;20455;-70
2021/07/15 12:02:10;;;;;;;10.17;9.77;;;26.50;97.10;;;;;;4973471;28;20550;-70
2021/07/15 12:05:10;;;;;;;10.60;10.30;;;26.50;96.40;;;;;;4973090;28;20459;-71
2021/07/15 12:07:38;;;;;;;10.30;10.00;;;26.50;95.70;;;;;;4972954;28;21009;-71
2021/07/15 12:10:09;;;;;;;10.13;9.83;;;26.90;95.70;;;;;;4973373;28;20447;-71
2021/07/15 12:12:39;;;;;;;10.50;10.20;;;27.30;94.80;;;;;;4973366;28;20500;-71
2021/07/15 12:15:13;;;;;;;10.40;10.10;;;27.40;94.70;;;;;;4973223;28;20867;-71
2021/07/15 12:17:41;;;;;;;11.20;10.83;;;27.40;94.90;;;;;;4973234;28;20491;-71
2021/07/15 12:20:09;;;;;;;10.57;10.00;;;26.90;95.40;;;;;;4973049;28;20475;-70
2021/07/15 12:22:47;;;;;;;9.83;9.40;;;26.70;95.70;;;;;;4973008;28;20506;-71
2021/07/15 12:25:19;;;;;;;9.57;9.27;;;26.20;95.90;;;;;;4973197;28;20455;-71
2021/07/15 12:27:48;;;;;;;10.20;9.70;;;26.00;96.40;;;;;;4973102;28;20523;-71
2021/07/15 12:30:16;;;;;;;10.20;9.83;;;25.50;97.60;;;;;;4972790;28;20471;-71
2021/07/15 12:32:54;;;;;;;9.70;9.30;;;25.30;97.60;;;;;;4972587;28;20467;-70
2021/07/15 12:35:21;;;;;;;9.80;9.40;;;25.10;97.80;;;;;;4972527;28;20504;-71
2021/07/15 12:37:48;;;;;;;10.60;10.20;;;24.70;97.60;;;;;;4972927;28;20447;-72
2021/07/15 12:40:16;;;;;;;10.47;10.17;;;24.40;98.40;;;;;;4972954;28;20833;-71
2021/07/15 12:42:43;;;;;;;10.80;10.50;;;24.70;98.70;;;;;;4972462;28;20440;-71
2021/07/15 12:45:18;;;;;;;10.77;10.47;;;25.40;98.40;;;;;;4972613;28;20501;-71